createdAt,value
2018-05-02T00:00:19.108Z,1.2
2018-05-02T00:02:18.854Z,1.1
2018-05-02T00:04:18.597Z,1
2018-05-02T00:06:19.177Z,1.5
2018-05-02T00:08:18.907Z,1.2
2018-05-02T00:10:19.199Z,1.3
2018-05-02T00:12:18.926Z,1.5
2018-05-02T00:14:18.677Z,1.1
2018-05-02T00:16:19.134Z,1.1
2018-05-02T00:18:18.958Z,1.1
2018-05-02T00:20:18.764Z,1
2018-05-02T00:22:18.533Z,1.2
2018-05-02T00:24:19.291Z,0.8
2018-05-02T00:26:19.242Z,1.1
2018-05-02T00:28:18.989Z,1.3
2018-05-02T00:30:18.733Z,1.2
2018-05-02T00:32:18.479Z,1.1
2018-05-02T00:34:19.245Z,1.1
2018-05-02T00:36:19.305Z,1.8
2018-05-02T00:38:19.060Z,1.2
2018-05-02T00:40:19.281Z,1.2
2018-05-02T00:42:19.040Z,1.3
2018-05-02T00:44:18.798Z,1.1
2018-05-02T00:46:18.839Z,1.2
2018-05-02T00:48:18.707Z,1.3
2018-05-02T00:50:18.491Z,1.3
2018-05-02T00:52:19.253Z,1.3
2018-05-02T00:54:19.002Z,1.3
2018-05-02T00:56:19.449Z,1.5
2018-05-02T00:58:19.202Z,1.5
2018-05-02T01:00:18.980Z,1
2018-05-02T01:02:18.747Z,1.1
2018-05-02T01:04:18.519Z,1
2018-05-02T01:06:19.115Z,1.4
2018-05-02T01:08:18.850Z,0.7
2018-05-02T01:10:19.114Z,0.8
2018-05-02T01:12:18.846Z,1.3
2018-05-02T01:14:18.592Z,1.6
2018-05-02T01:16:19.112Z,1
2018-05-02T01:18:18.936Z,1.2
2018-05-02T01:20:18.689Z,0.9
2018-05-02T01:22:19.420Z,0.9
2018-05-02T01:24:19.173Z,1
2018-05-02T01:26:18.859Z,1
2018-05-02T01:28:18.632Z,1.1
2018-05-02T01:30:19.416Z,1.4
2018-05-02T01:32:19.190Z,1
2018-05-02T01:34:18.969Z,1.3
2018-05-02T01:36:18.461Z,1.2
2018-05-02T01:38:19.203Z,1.4
2018-05-02T01:40:19.444Z,1.4
2018-05-02T01:42:19.190Z,0.9
2018-05-02T01:44:18.918Z,1.2
2018-05-02T01:46:18.966Z,0.9
2018-05-02T01:48:18.709Z,0.9
2018-05-02T01:50:19.470Z,1.4
2018-05-02T01:52:19.225Z,1
2018-05-02T01:54:18.981Z,1.1
2018-05-02T01:56:19.448Z,1.1
2018-05-02T01:58:19.219Z,1.3
2018-05-02T02:00:19.030Z,1.5
2018-05-02T02:02:18.768Z,1
2018-05-02T02:04:18.528Z,1.3
2018-05-02T02:06:18.536Z,1.1
2018-05-02T02:08:19.269Z,1.4
2018-05-02T02:10:19.446Z,1.2
2018-05-02T02:12:19.181Z,1.2
2018-05-02T02:14:18.924Z,1.2
2018-05-02T02:16:18.922Z,0.9
2018-05-02T02:18:18.769Z,0.9
2018-05-02T02:20:18.533Z,1.6
2018-05-02T02:22:19.278Z,1.1
2018-05-02T02:24:19.002Z,1.3
2018-05-02T02:26:19.009Z,1.3
2018-05-02T02:28:18.775Z,1
2018-05-02T02:30:18.584Z,1.8
2018-05-02T02:32:19.354Z,1.4
2018-05-02T02:34:19.132Z,1.8
2018-05-02T02:36:18.626Z,0.9
2018-05-02T02:38:19.386Z,0.9
2018-05-02T02:40:18.584Z,1.7
2018-05-02T02:42:19.312Z,1.1
2018-05-02T02:44:19.103Z,1.1
2018-05-02T02:46:18.562Z,1.5
2018-05-02T02:48:19.325Z,1
2018-05-02T02:50:19.065Z,1.1
2018-05-02T02:52:18.810Z,0.9
2018-05-02T02:54:18.571Z,0.8
2018-05-02T02:56:19.038Z,1.3
2018-05-02T02:58:18.802Z,1.1
2018-05-02T03:00:18.568Z,1.2
2018-05-02T03:02:19.334Z,1.8
2018-05-02T03:04:19.084Z,1
2018-05-02T03:06:18.579Z,1.5
2018-05-02T03:08:19.339Z,0.8
2018-05-02T03:10:18.608Z,2.1
2018-05-02T03:12:19.347Z,1.1
2018-05-02T03:14:19.108Z,1.1
2018-05-02T03:16:18.588Z,1.1
2018-05-02T03:18:19.405Z,1.3
2018-05-02T03:20:19.176Z,1.2
2018-05-02T03:22:18.940Z,1.1
2018-05-02T03:24:18.722Z,0.9
2018-05-02T03:26:19.215Z,1.5
2018-05-02T03:28:18.974Z,1.2
2018-05-02T03:30:18.739Z,1
2018-05-02T03:32:18.490Z,1.2
2018-05-02T03:34:19.234Z,1.5
2018-05-02T03:36:18.794Z,1.1
2018-05-02T03:38:18.564Z,1.1
2018-05-02T03:40:18.759Z,1.2
2018-05-02T03:42:18.497Z,0.9
2018-05-02T03:44:19.249Z,0.9
2018-05-02T03:46:19.391Z,1.1
2018-05-02T03:48:19.140Z,1
2018-05-02T03:50:18.987Z,1.1
2018-05-02T03:52:18.750Z,1.3
2018-05-02T03:54:18.496Z,1.2
2018-05-02T03:56:18.636Z,1
2018-05-02T03:58:19.376Z,1.5
2018-05-02T04:00:19.208Z,1.4
2018-05-02T04:02:19.023Z,1.2
2018-05-02T04:04:18.809Z,1.1
2018-05-02T04:06:19.341Z,1.4
2018-05-02T04:08:19.098Z,1.4
2018-05-02T04:10:19.293Z,1.3
2018-05-02T04:12:19.006Z,2.1
2018-05-02T04:14:18.767Z,1.8
2018-05-02T04:16:19.330Z,2
2018-05-02T04:18:19.178Z,1.7
2018-05-02T04:20:18.965Z,1.7
2018-05-02T04:22:18.727Z,1.1
2018-05-02T04:24:18.469Z,1.8
2018-05-02T04:26:18.986Z,1.9
2018-05-02T04:28:18.726Z,1.7
2018-05-02T04:30:18.656Z,2
2018-05-02T04:32:19.399Z,1.8
2018-05-02T04:34:19.131Z,1.6
2018-05-02T04:36:18.599Z,1.5
2018-05-02T04:38:19.357Z,1.4
2018-05-02T04:40:18.542Z,1.5
2018-05-02T04:42:19.284Z,1.4
2018-05-02T04:44:19.030Z,1.6
2018-05-02T04:46:19.049Z,1.5
2018-05-02T04:48:18.787Z,1.6
2018-05-02T04:50:18.565Z,1.3
2018-05-02T04:52:19.307Z,1.6
2018-05-02T04:54:19.066Z,1.2
2018-05-02T04:56:18.545Z,1.8
2018-05-02T04:58:19.307Z,1.5
2018-05-02T05:00:19.144Z,1.3
2018-05-02T05:02:18.909Z,1.8
2018-05-02T05:04:18.700Z,1.6
2018-05-02T05:06:19.180Z,1.4
2018-05-02T05:08:18.942Z,1.4
2018-05-02T05:10:19.158Z,1.3
2018-05-02T05:12:18.972Z,1.9
2018-05-02T05:14:18.797Z,1.8
2018-05-02T05:16:19.333Z,2
2018-05-02T05:18:19.155Z,2.4
2018-05-02T05:20:18.941Z,1.6
2018-05-02T05:22:18.697Z,2.1
2018-05-02T05:24:19.454Z,1.6
2018-05-02T05:26:19.478Z,1.5
2018-05-02T05:28:19.261Z,1.8
2018-05-02T05:30:19.209Z,1.6
2018-05-02T05:32:18.977Z,1.8
2018-05-02T05:34:18.724Z,2.2
2018-05-02T05:36:19.161Z,1.9
2018-05-02T05:38:18.916Z,2.3
2018-05-02T05:40:19.230Z,2.2
2018-05-02T05:42:18.981Z,2.1
2018-05-02T05:44:18.728Z,1.9
2018-05-02T05:46:18.814Z,2
2018-05-02T05:48:18.564Z,2.7
2018-05-02T05:50:19.337Z,1.8
2018-05-02T05:52:19.127Z,2.4
2018-05-02T05:54:18.891Z,2.6
2018-05-02T05:56:19.072Z,1.9
2018-05-02T05:58:18.820Z,2.2
2018-05-02T06:00:18.676Z,2.2
2018-05-02T06:02:19.449Z,2.2
2018-05-02T06:04:19.192Z,1.9
2018-05-02T06:06:18.912Z,2.5
2018-05-02T06:08:18.678Z,2
2018-05-02T06:10:18.907Z,1.8
2018-05-02T06:12:18.672Z,1.9
2018-05-02T06:14:19.421Z,2.2
2018-05-02T06:16:18.945Z,1.6
2018-05-02T06:18:18.764Z,2.2
2018-05-02T06:20:18.539Z,2.4
2018-05-02T06:22:19.284Z,2.3
2018-05-02T06:24:19.054Z,1.9
2018-05-02T06:26:19.101Z,1.8
2018-05-02T06:28:18.849Z,2.4
2018-05-02T06:30:18.620Z,2.6
2018-05-02T06:32:19.378Z,2
2018-05-02T06:34:19.136Z,2
2018-05-02T06:36:18.634Z,2
2018-05-02T06:38:19.404Z,2
2018-05-02T06:40:18.616Z,2.2
2018-05-02T06:42:19.373Z,1.7
2018-05-02T06:44:19.140Z,1.7
2018-05-02T06:46:18.647Z,1.8
2018-05-02T06:48:19.424Z,2.5
2018-05-02T06:50:19.291Z,1.3
2018-05-02T06:52:19.112Z,2.8
2018-05-02T06:54:18.873Z,2.8
2018-05-02T06:56:19.406Z,2.2
2018-05-02T06:58:19.153Z,1.9
2018-05-02T07:00:18.979Z,2
2018-05-02T07:02:18.745Z,1.6
2018-05-02T07:04:18.495Z,1.9
2018-05-02T07:06:18.947Z,2.2
2018-05-02T07:08:18.710Z,1.4
2018-05-02T07:10:18.916Z,1.5
2018-05-02T07:12:18.694Z,2.1
2018-05-02T07:14:19.494Z,2.4
2018-05-02T07:16:19.000Z,2.4
2018-05-02T07:18:18.805Z,2.2
2018-05-02T07:20:18.600Z,2.4
2018-05-02T07:22:19.384Z,2.3
2018-05-02T07:24:19.168Z,2.2
2018-05-02T07:26:18.649Z,2.3
2018-05-02T07:28:19.424Z,1.8
2018-05-02T07:30:19.193Z,2.4
2018-05-02T07:32:18.966Z,1.8
2018-05-02T07:34:18.749Z,2
2018-05-02T07:36:19.276Z,1.5
2018-05-02T07:38:19.053Z,2.5
2018-05-02T07:40:19.331Z,1.7
2018-05-02T07:42:19.114Z,1.6
2018-05-02T07:44:18.875Z,2.5
2018-05-02T07:46:19.365Z,2.1
2018-05-02T07:48:19.133Z,2.2
2018-05-02T07:50:18.932Z,1.5
2018-05-02T07:52:18.714Z,1.9
2018-05-02T07:54:19.509Z,1.8
2018-05-02T07:56:18.621Z,2.2
2018-05-02T07:58:19.421Z,2.1
2018-05-02T08:00:19.212Z,2.1
2018-05-02T08:02:18.990Z,2.2
2018-05-02T08:04:18.753Z,1.7
2018-05-02T08:06:19.343Z,2
2018-05-02T08:08:19.160Z,2
2018-05-02T08:10:19.376Z,2.3
2018-05-02T08:12:19.145Z,2.6
2018-05-02T08:14:18.942Z,2.3
2018-05-02T08:16:19.517Z,2.6
2018-05-02T08:18:19.379Z,1.9
2018-05-02T08:20:19.167Z,2.5
2018-05-02T08:22:18.939Z,2.2
2018-05-02T08:24:18.726Z,1.8
2018-05-02T08:26:19.223Z,1.6
2018-05-02T08:28:19.011Z,2.3
2018-05-02T08:30:18.784Z,2.4
2018-05-02T08:32:18.561Z,1.9
2018-05-02T08:34:19.388Z,2.4
2018-05-02T08:36:18.863Z,2.3
2018-05-02T08:38:18.617Z,2.2
2018-05-02T08:40:18.977Z,2
2018-05-02T08:42:18.729Z,3
2018-05-02T08:44:19.506Z,2.7
2018-05-02T08:46:19.021Z,1.8
2018-05-02T08:48:18.793Z,1.9
2018-05-02T08:50:18.591Z,2.1
2018-05-02T08:52:19.364Z,2
2018-05-02T08:54:19.159Z,1.9
2018-05-02T08:56:19.241Z,1.8
2018-05-02T08:58:19.026Z,1.8
2018-05-02T09:00:18.851Z,2
2018-05-02T09:02:18.651Z,1.8
2018-05-02T09:04:19.425Z,1.8
2018-05-02T09:06:18.910Z,1.7
2018-05-02T09:08:18.701Z,1.7
2018-05-02T09:10:18.928Z,2
2018-05-02T09:12:18.728Z,1.9
2018-05-02T09:14:18.496Z,1.5
2018-05-02T09:16:18.591Z,2.5
2018-05-02T09:18:19.460Z,1.8
2018-05-02T09:20:19.232Z,1.6
2018-05-02T09:22:19.009Z,1.9
2018-05-02T09:24:18.795Z,1.4
2018-05-02T09:26:19.362Z,1.5
2018-05-02T09:28:19.164Z,1.7
2018-05-02T09:30:18.963Z,1.1
2018-05-02T09:32:18.719Z,0.9
2018-05-02T09:34:18.486Z,1.9
2018-05-02T09:36:19.004Z,1.7
2018-05-02T09:38:18.775Z,1.1
2018-05-02T09:40:18.996Z,0.8
2018-05-02T09:42:18.759Z,1.1
2018-05-02T09:44:18.538Z,1.7
2018-05-02T09:46:19.041Z,1.2
2018-05-02T09:48:18.829Z,1.5
2018-05-02T09:50:18.615Z,1.1
2018-05-02T09:52:19.384Z,1.6
2018-05-02T09:54:19.137Z,1.5
2018-05-02T09:56:18.658Z,0.9
2018-05-02T09:58:19.468Z,1.2
2018-05-02T10:00:19.331Z,1.9
2018-05-02T10:02:19.113Z,1
2018-05-02T10:04:18.873Z,1.4
2018-05-02T10:06:19.396Z,1.3
2018-05-02T10:08:19.194Z,0.9
2018-05-02T10:10:19.491Z,0.8
2018-05-02T10:12:19.247Z,1.1
2018-05-02T10:14:19.050Z,1.1
2018-05-02T10:16:19.407Z,1.1
2018-05-02T10:18:19.278Z,1
2018-05-02T10:20:19.059Z,0.7
2018-05-02T10:22:18.833Z,1.1
2018-05-02T10:24:18.644Z,1
2018-05-02T10:26:18.600Z,1
2018-05-02T10:28:19.491Z,0.9
2018-05-02T10:30:19.267Z,0.9
2018-05-02T10:32:19.029Z,1.3
2018-05-02T10:34:18.789Z,1.5
2018-05-02T10:36:18.809Z,1
2018-05-02T10:38:18.598Z,1.1
2018-05-02T10:40:18.815Z,0.8
2018-05-02T10:42:18.579Z,1.4
2018-05-02T10:44:19.386Z,1.2
2018-05-02T10:46:19.504Z,1.1
2018-05-02T10:48:19.289Z,0.8
2018-05-02T10:50:19.056Z,0.9
2018-05-02T10:52:18.837Z,1.2
2018-05-02T10:54:18.633Z,1.1
2018-05-02T10:56:19.161Z,1
2018-05-02T10:58:18.968Z,1.1
2018-05-02T11:00:18.768Z,0.9
2018-05-02T11:02:18.556Z,1.1
2018-05-02T11:04:19.317Z,1.1
2018-05-02T11:06:18.826Z,0.9
2018-05-02T11:08:18.636Z,1.2
2018-05-02T11:10:18.909Z,1
2018-05-02T11:12:18.706Z,1.3
2018-05-02T11:14:19.487Z,1.9
2018-05-02T11:16:19.002Z,1.6
2018-05-02T11:18:18.859Z,0.9
2018-05-02T11:20:18.724Z,0.8
2018-05-02T11:22:18.537Z,1.1
2018-05-02T11:24:19.318Z,0.9
2018-05-02T11:26:18.839Z,0.8
2018-05-02T11:28:18.645Z,0.8
2018-05-02T11:30:19.482Z,0.9
2018-05-02T11:32:19.241Z,0.9
2018-05-02T11:34:19.030Z,0.6
2018-05-02T11:36:18.567Z,0.5
2018-05-02T11:38:19.382Z,0.6
2018-05-02T11:40:18.638Z,0.5
2018-05-02T11:42:19.403Z,0.7
2018-05-02T11:44:19.181Z,0.5
2018-05-02T11:46:18.767Z,0.4
2018-05-02T11:48:18.667Z,1
2018-05-02T11:50:19.450Z,0.6
2018-05-02T11:52:19.240Z,0.5
2018-05-02T11:54:19.011Z,0.5
2018-05-02T11:56:19.057Z,0.6
2018-05-02T11:58:18.837Z,0.5
2018-05-02T12:00:18.617Z,0.4
2018-05-02T12:02:19.377Z,0.5
2018-05-02T12:04:19.152Z,0.4
2018-05-02T12:06:18.646Z,0.6
2018-05-02T12:08:19.414Z,0.5
2018-05-02T12:10:18.656Z,0.4
2018-05-02T12:12:19.439Z,0.4
2018-05-02T12:14:19.220Z,0.5
2018-05-02T12:16:18.891Z,0.4
2018-05-02T12:18:18.754Z,0.4
2018-05-02T12:20:18.556Z,0.5
2018-05-02T12:22:19.335Z,0.4
2018-05-02T12:24:19.135Z,0.4
2018-05-02T12:26:19.201Z,0.3
2018-05-02T12:28:18.984Z,0.4
2018-05-02T12:30:18.788Z,0.4
2018-05-02T12:32:18.592Z,0.7
2018-05-02T12:34:19.398Z,0.3
2018-05-02T12:36:19.466Z,0.4
2018-05-02T12:38:19.239Z,0.4
2018-05-02T12:40:19.462Z,0.3
2018-05-02T12:42:19.230Z,0.3
2018-05-02T12:44:19.029Z,0.5
2018-05-02T12:46:18.511Z,0.7
2018-05-02T12:48:19.268Z,1
2018-05-02T12:50:19.044Z,0.6
2018-05-02T12:52:18.819Z,0.5
2018-05-02T12:54:18.597Z,0.9
2018-05-02T12:56:18.774Z,0.6
2018-05-02T12:58:18.881Z,0.8
2018-05-02T13:00:18.678Z,0.8
2018-05-02T13:02:19.463Z,0.7
2018-05-02T13:04:19.243Z,0.8
2018-05-02T13:06:19.308Z,0.5
2018-05-02T13:08:19.063Z,0.4
2018-05-02T13:10:19.428Z,0.5
2018-05-02T13:12:19.193Z,0.5
2018-05-02T13:14:18.976Z,0.5
2018-05-02T13:16:18.580Z,0.3
2018-05-02T13:18:19.446Z,0.3
2018-05-02T13:20:19.232Z,0.3
2018-05-02T13:22:19.037Z,0.7
2018-05-02T13:24:19.100Z,1
2018-05-02T13:26:19.112Z,0.6
2018-05-02T13:28:18.876Z,0.6
2018-05-02T13:30:18.654Z,0.5
2018-05-02T13:32:19.440Z,0.5
2018-05-02T13:34:19.190Z,0.5
2018-05-02T13:36:18.657Z,0.6
2018-05-02T13:38:19.430Z,0.5
2018-05-02T13:40:18.901Z,0.4
2018-05-02T13:42:18.660Z,0.5
2018-05-02T13:44:19.421Z,0.8
2018-05-02T13:46:19.438Z,0.6
2018-05-02T13:48:19.239Z,0.5
2018-05-02T13:50:19.098Z,0.8
2018-05-02T13:52:18.930Z,0.6
2018-05-02T13:54:18.726Z,0.5
2018-05-02T13:56:19.265Z,0.9
2018-05-02T13:58:18.038Z,0.6
2018-05-02T14:00:18.811Z,0.5
2018-05-02T14:02:17.603Z,0.7
2018-05-02T14:04:18.410Z,0.6
2018-05-02T14:06:19.461Z,0.8
2018-05-02T14:08:18.334Z,0.5
2018-05-02T14:10:17.693Z,0.5
2018-05-02T14:12:18.450Z,1
2018-05-02T14:14:19.229Z,1.8
2018-05-02T14:16:18.772Z,0.7
2018-05-02T14:18:17.612Z,0.6
2018-05-02T14:20:19.416Z,0.7
2018-05-02T14:22:19.222Z,0.5
2018-05-02T14:24:18.041Z,0.6
2018-05-02T14:26:18.508Z,0.4
2018-05-02T14:28:18.342Z,1
2018-05-02T14:30:18.108Z,0.4
2018-05-02T14:32:18.892Z,0.8
2018-05-02T14:34:18.699Z,0.4
2018-05-02T14:36:19.173Z,0.6
2018-05-02T14:38:17.954Z,0.7
2018-05-02T14:40:18.274Z,0.2
2018-05-02T14:42:19.056Z,0.5
2018-05-02T14:44:18.830Z,0.7
2018-05-02T14:46:17.862Z,1.4
2018-05-02T14:48:17.641Z,0.5
2018-05-02T14:50:18.424Z,0.5
2018-05-02T14:52:18.191Z,0.4
2018-05-02T14:54:18.959Z,0.4
2018-05-02T14:56:18.468Z,0.8
2018-05-02T14:58:18.252Z,0.4
2018-05-02T15:00:19.051Z,0.4
2018-05-02T15:02:18.907Z,0.5
2018-05-02T15:04:18.788Z,0.3
2018-05-02T15:06:17.861Z,0.4
2018-05-02T15:08:18.695Z,0.7
2018-05-02T15:10:19.110Z,0.6
2018-05-02T15:12:17.927Z,0.5
2018-05-02T15:14:18.711Z,0.8
2018-05-02T15:16:19.247Z,0.4
2018-05-02T15:18:19.130Z,0.4
2018-05-02T15:20:18.952Z,0.4
2018-05-02T15:22:18.773Z,0.3
2018-05-02T15:24:18.563Z,0.3
2018-05-02T15:26:18.078Z,0.5
2018-05-02T15:28:18.837Z,0.5
2018-05-02T15:30:18.710Z,0.6
2018-05-02T15:32:18.451Z,0.6
2018-05-02T15:34:18.209Z,0.4
2018-05-02T15:36:18.710Z,0.5
2018-05-02T15:38:19.459Z,0.3
2018-05-02T15:40:18.806Z,0.8
2018-05-02T15:42:18.736Z,0.5
2018-05-02T15:44:19.503Z,0.2
2018-05-02T15:46:18.512Z,0.5
2018-05-02T15:48:19.266Z,0.3
2018-05-02T15:50:19.161Z,0.3
2018-05-02T15:52:18.970Z,0.4
2018-05-02T15:54:18.766Z,0.7
2018-05-02T15:56:18.796Z,0.6
2018-05-02T15:58:18.665Z,0.5
2018-05-02T16:00:18.683Z,0.5
2018-05-02T16:02:19.443Z,3.8
2018-05-02T16:04:19.236Z,3.7
2018-05-02T16:06:19.499Z,1.3
2018-05-02T16:08:18.310Z,0.5
2018-05-02T16:10:18.521Z,0.3
2018-05-02T16:12:19.326Z,0.6
2018-05-02T16:14:18.111Z,0.6
2018-05-02T16:16:19.188Z,0.4
2018-05-02T16:18:19.102Z,0.5
2018-05-02T16:20:18.889Z,0.4
2018-05-02T16:22:18.671Z,0.3
2018-05-02T16:24:19.440Z,0.4
2018-05-02T16:26:19.355Z,0.5
2018-05-02T16:28:19.103Z,0.7
2018-05-02T16:30:18.883Z,0.5
2018-05-02T16:32:18.654Z,0.5
2018-05-02T16:34:19.423Z,0.8
2018-05-02T16:36:18.927Z,0.8
2018-05-02T16:38:18.672Z,0.3
2018-05-02T16:40:18.912Z,0.7
2018-05-02T16:42:18.693Z,0.6
2018-05-02T16:44:19.453Z,0.5
2018-05-02T16:46:19.030Z,0.8
2018-05-02T16:48:18.834Z,0.9
2018-05-02T16:50:18.597Z,0.4
2018-05-02T16:52:19.350Z,0.5
2018-05-02T16:54:19.125Z,0.4
2018-05-02T16:56:18.731Z,0.9
2018-05-02T16:58:18.501Z,0.5
2018-05-02T17:00:19.313Z,0.4
2018-05-02T17:02:19.072Z,0.9
2018-05-02T17:04:18.999Z,0.5
2018-05-02T17:06:18.697Z,0.5
2018-05-02T17:08:19.501Z,0.6
2018-05-02T17:10:18.742Z,0.6
2018-05-02T17:12:18.505Z,0.7
2018-05-02T17:14:19.408Z,0.7
2018-05-02T17:16:18.908Z,0.7
2018-05-02T17:18:18.781Z,0.6
2018-05-02T17:20:18.552Z,0.7
2018-05-02T17:22:19.393Z,0.5
2018-05-02T17:24:19.293Z,0.5
2018-05-02T17:26:18.791Z,0.8
2018-05-02T17:28:18.599Z,1.1
2018-05-02T17:30:19.388Z,0.7
2018-05-02T17:32:19.155Z,0.7
2018-05-02T17:34:18.939Z,0.6
2018-05-02T17:36:19.000Z,0.7
2018-05-02T17:38:18.791Z,0.6
2018-05-02T17:40:19.015Z,0.8
2018-05-02T17:42:18.785Z,0.6
2018-05-02T17:44:18.560Z,0.5
2018-05-02T17:46:18.593Z,0.7
2018-05-02T17:48:19.391Z,0.6
2018-05-02T17:50:19.376Z,0.5
2018-05-02T17:52:19.179Z,0.6
2018-05-02T17:54:18.940Z,0.7
2018-05-02T17:56:19.437Z,0.8
2018-05-02T17:58:19.203Z,0.7
2018-05-02T18:00:18.966Z,0.4
2018-05-02T18:02:18.710Z,0.5
2018-05-02T18:04:19.476Z,0.6
2018-05-02T18:06:19.020Z,0.7
2018-05-02T18:08:18.790Z,1
2018-05-02T18:10:19.038Z,1
2018-05-02T18:12:18.859Z,0.6
2018-05-02T18:14:18.612Z,0.5
2018-05-02T18:16:19.052Z,0.6
2018-05-02T18:18:18.899Z,0.8
2018-05-02T18:20:18.734Z,0.6
2018-05-02T18:22:18.483Z,0.7
2018-05-02T18:24:19.240Z,0.7
2018-05-02T18:26:18.849Z,0.7
2018-05-02T18:28:18.618Z,0.6
2018-05-02T18:30:19.506Z,0.8
2018-05-02T18:32:19.303Z,0.7
2018-05-02T18:34:19.079Z,0.8
2018-05-02T18:36:18.666Z,0.9
2018-05-02T18:38:19.472Z,0.8
2018-05-02T18:40:18.845Z,0.8
2018-05-02T18:42:18.623Z,0.6
2018-05-02T18:44:19.401Z,0.8
2018-05-02T18:46:19.407Z,0.7
2018-05-02T18:48:19.163Z,0.8
2018-05-02T18:50:18.986Z,1.2
2018-05-02T18:52:18.764Z,0.8
2018-05-02T18:54:18.525Z,0.6
2018-05-02T18:56:18.546Z,1
2018-05-02T18:58:19.314Z,1
2018-05-02T19:00:19.118Z,0.7
2018-05-02T19:02:18.881Z,1.5
2018-05-02T19:04:18.658Z,0.6
2018-05-02T19:06:19.274Z,0.8
2018-05-02T19:08:19.032Z,1.2
2018-05-02T19:10:19.278Z,0.8
2018-05-02T19:12:19.131Z,0.8
2018-05-02T19:14:19.070Z,1
2018-05-02T19:16:19.088Z,1
2018-05-02T19:18:18.928Z,1.1
2018-05-02T19:20:18.710Z,1.4
2018-05-02T19:22:19.485Z,0.6
2018-05-02T19:24:19.263Z,0.9
2018-05-02T19:26:18.742Z,0.9
2018-05-02T19:28:18.509Z,1.5
2018-05-02T19:30:19.298Z,1.4
2018-05-02T19:32:19.058Z,1
2018-05-02T19:34:18.860Z,0.6
2018-05-02T19:36:19.418Z,0.7
2018-05-02T19:38:19.198Z,1.2
2018-05-02T19:40:19.427Z,0.7
2018-05-02T19:42:19.203Z,1.1
2018-05-02T19:44:19.047Z,1.1
2018-05-02T19:46:18.648Z,1.3
2018-05-02T19:48:19.398Z,1.3
2018-05-02T19:50:19.215Z,1.4
2018-05-02T19:52:18.965Z,1.1
2018-05-02T19:54:18.722Z,1.2
2018-05-02T19:56:19.226Z,1
2018-05-02T19:58:18.993Z,1
2018-05-02T20:00:18.782Z,1.4
2018-05-02T20:02:18.557Z,1.2
2018-05-02T20:04:19.333Z,1.3
2018-05-02T20:06:18.890Z,1.2
2018-05-02T20:08:18.702Z,1.1
2018-05-02T20:10:18.957Z,1
2018-05-02T20:12:18.725Z,1.1
2018-05-02T20:14:19.468Z,1.1
2018-05-02T20:16:18.940Z,1
2018-05-02T20:18:18.789Z,0.9
2018-05-02T20:20:18.603Z,1
2018-05-02T20:22:19.369Z,1.4
2018-05-02T20:24:19.141Z,1.3
2018-05-02T20:26:18.637Z,1.1
2018-05-02T20:28:19.411Z,1.1
2018-05-02T20:30:19.201Z,0.9
2018-05-02T20:32:18.971Z,1
2018-05-02T20:34:18.731Z,1.3
2018-05-02T20:36:19.214Z,1
2018-05-02T20:38:18.962Z,0.9
2018-05-02T20:40:19.177Z,1.2
2018-05-02T20:42:18.970Z,1.6
2018-05-02T20:44:18.753Z,1.4
2018-05-02T20:46:19.263Z,1.8
2018-05-02T20:48:19.029Z,1.3
2018-05-02T20:50:18.812Z,1.3
2018-05-02T20:52:18.576Z,0.9
2018-05-02T20:54:19.397Z,1.1
2018-05-02T20:56:18.569Z,0.9
2018-05-02T20:58:19.347Z,1.2
2018-05-02T21:00:19.156Z,1.2
2018-05-02T21:02:18.891Z,1.2
2018-05-02T21:04:18.648Z,1
2018-05-02T21:06:19.137Z,1
2018-05-02T21:08:18.897Z,1
2018-05-02T21:10:19.137Z,1.2
2018-05-02T21:12:18.893Z,0.8
2018-05-02T21:14:18.675Z,1.2
2018-05-02T21:16:19.129Z,1.2
2018-05-02T21:18:18.975Z,1.1
2018-05-02T21:20:18.766Z,1.3
2018-05-02T21:22:18.530Z,1.2
2018-05-02T21:24:19.290Z,1
2018-05-02T21:26:18.770Z,1.3
2018-05-02T21:28:18.507Z,1.1
2018-05-02T21:30:19.353Z,1.7
2018-05-02T21:32:19.119Z,1.1
2018-05-02T21:34:18.883Z,1.2
2018-05-02T21:36:18.937Z,1.1
2018-05-02T21:38:18.697Z,1.2
2018-05-02T21:40:18.896Z,1.5
2018-05-02T21:42:18.671Z,1.1
2018-05-02T21:44:19.449Z,1.6
2018-05-02T21:46:19.017Z,0.7
2018-05-02T21:48:18.765Z,1.3
2018-05-02T21:50:18.561Z,1.2
2018-05-02T21:52:19.322Z,1
2018-05-02T21:54:19.127Z,0.9
2018-05-02T21:56:19.405Z,1.3
2018-05-02T21:58:19.185Z,1
2018-05-02T22:00:18.955Z,1
2018-05-02T22:02:18.734Z,1.1
2018-05-02T22:04:18.529Z,1.6
2018-05-02T22:06:19.257Z,1.1
2018-05-02T22:08:19.026Z,1.3
2018-05-02T22:10:19.261Z,0.9
2018-05-02T22:12:19.014Z,1.1
2018-05-02T22:14:18.815Z,1.4
2018-05-02T22:16:18.881Z,0.9
2018-05-02T22:18:18.719Z,1.2
2018-05-02T22:20:19.476Z,1.3
2018-05-02T22:22:19.222Z,1.1
2018-05-02T22:24:19.021Z,1.1
2018-05-02T22:26:18.517Z,1.1
2018-05-02T22:28:19.261Z,1.4
2018-05-02T22:30:19.053Z,1.5
2018-05-02T22:32:18.824Z,1.1
2018-05-02T22:34:18.600Z,1.1
2018-05-02T22:36:19.092Z,1.3
2018-05-02T22:38:18.847Z,1.2
2018-05-02T22:40:19.101Z,0.9
2018-05-02T22:42:18.861Z,1.2
2018-05-02T22:44:18.619Z,1.7
2018-05-02T22:46:19.090Z,1.5
2018-05-02T22:48:18.869Z,1.7
2018-05-02T22:50:18.626Z,1.4
2018-05-02T22:52:19.384Z,1.1
2018-05-02T22:54:19.167Z,1.5
2018-05-02T22:56:18.642Z,1.6
2018-05-02T22:58:19.381Z,1.5
2018-05-02T23:00:19.144Z,1.7
2018-05-02T23:02:18.905Z,1.4
2018-05-02T23:04:18.678Z,1.6
2018-05-02T23:06:19.133Z,1.7
2018-05-02T23:08:18.936Z,1.7
2018-05-02T23:10:19.139Z,1.6
2018-05-02T23:12:18.927Z,1.7
2018-05-02T23:14:18.675Z,1.7
2018-05-02T23:16:18.675Z,1.9
2018-05-02T23:18:18.549Z,1.5
2018-05-02T23:20:19.434Z,1.4
2018-05-02T23:22:19.201Z,1.5
2018-05-02T23:24:18.981Z,1.2
2018-05-02T23:26:19.450Z,1.7
2018-05-02T23:28:19.227Z,1.9
2018-05-02T23:30:19.109Z,1.8
2018-05-02T23:32:18.906Z,1.3
2018-05-02T23:34:18.652Z,2.2
2018-05-02T23:36:19.181Z,2.3
2018-05-02T23:38:18.951Z,2.8
2018-05-02T23:40:19.208Z,2.5
2018-05-02T23:42:18.971Z,2.2
2018-05-02T23:44:18.728Z,1.6
2018-05-02T23:46:19.215Z,1.4
2018-05-02T23:48:18.973Z,1.3
2018-05-02T23:50:18.806Z,1.6
2018-05-02T23:52:18.569Z,1.4
2018-05-02T23:54:19.339Z,2.2
2018-05-02T23:56:19.329Z,2
2018-05-02T23:58:19.103Z,1.8
